Time,TemperatureF,DewpointF,PressureIn,WindDirection,WindDirectionDegrees,WindSpeedMPH,WindSpeedGustMPH,Humidity,HourlyPrecipIn,Conditions,Clouds,dailyrainin,SoftwareType,DateUTC
2013-08-12 00:01:00,66.7,66.4,30.19,NNE,33,0.0,1.0,99,0.00,,,0.04,meteohub,2013-08-12 04:01:00,
2013-08-12 00:05:00,66.6,66.2,30.19,NNE,33,0.0,1.0,99,0.00,,,0.04,meteohub,2013-08-12 04:05:00,
2013-08-12 00:10:00,66.6,66.2,30.19,NNE,33,0.0,1.0,99,0.00,,,0.04,meteohub,2013-08-12 04:10:00,
2013-08-12 00:15:00,66.6,66.2,30.19,NNE,33,0.0,1.0,99,0.00,,,0.04,meteohub,2013-08-12 04:15:00,
2013-08-12 00:20:00,66.6,66.2,30.18,NNE,33,0.0,0.0,99,0.00,,,0.04,meteohub,2013-08-12 04:20:00,
2013-08-12 00:25:00,66.6,66.2,30.18,NNE,33,0.0,0.0,99,0.00,,,0.04,meteohub,2013-08-12 04:25:00,
2013-08-12 00:30:00,66.6,66.2,30.18,NNE,33,0.0,0.0,99,0.00,,,0.04,meteohub,2013-08-12 04:30:00,
2013-08-12 00:35:00,66.4,66.0,30.18,NNE,33,0.0,0.0,99,0.00,,,0.04,meteohub,2013-08-12 04:35:00,
2013-08-12 00:40:00,66.4,66.0,30.18,NNE,33,0.0,0.0,99,0.00,,,0.04,meteohub,2013-08-12 04:40:00,
2013-08-12 00:45:00,66.2,65.8,30.18,NNE,33,0.0,0.0,99,0.00,,,0.04,meteohub,2013-08-12 04:45:00,
2013-08-12 00:50:00,66.2,65.8,30.18,NNE,33,0.0,0.0,99,0.00,,,0.04,meteohub,2013-08-12 04:50:00,
2013-08-12 00:55:00,66.2,65.8,30.17,NNE,33,0.0,0.0,99,0.00,,,0.04,meteohub,2013-08-12 04:55:00,
2013-08-12 01:00:00,66.0,65.7,30.17,NNE,33,0.0,0.0,99,0.00,,,0.04,meteohub,2013-08-12 05:00:00,
2013-08-12 01:05:00,66.0,65.7,30.18,NNE,33,0.0,0.0,99,0.00,,,0.04,meteohub,2013-08-12 05:05:00,
2013-08-12 01:10:00,65.8,65.5,30.18,NNE,33,0.0,0.0,99,0.00,,,0.04,meteohub,2013-08-12 05:10:00,
2013-08-12 01:15:00,65.8,65.5,30.17,NNE,33,0.0,0.0,99,0.00,,,0.04,meteohub,2013-08-12 05:15:00,
2013-08-12 01:20:00,66.0,65.7,30.18,NNE,33,0.0,0.0,99,0.00,,,0.04,meteohub,2013-08-12 05:20:00,
2013-08-12 01:25:00,66.0,65.7,30.18,NNE,33,0.0,0.0,99,0.00,,,0.04,meteohub,2013-08-12 05:25:00,
2013-08-12 01:30:00,66.0,65.7,30.17,NNE,30,0.0,0.0,99,0.00,,,0.04,meteohub,2013-08-12 05:30:00,
2013-08-12 01:35:00,66.0,65.7,30.18,NNE,30,0.0,0.0,99,0.00,,,0.04,meteohub,2013-08-12 05:35:00,
2013-08-12 01:40:00,65.8,65.5,30.18,NE,40,0.0,2.0,99,0.00,,,0.04,meteohub,2013-08-12 05:40:00,
2013-08-12 01:45:00,65.7,65.3,30.17,NE,39,0.0,2.0,99,0.00,,,0.04,meteohub,2013-08-12 05:45:00,
2013-08-12 01:50:00,65.7,65.3,30.17,NE,37,0.0,2.0,99,0.00,,,0.04,meteohub,2013-08-12 05:50:00,
2013-08-12 01:55:00,65.7,65.3,30.17,NE,40,0.0,0.0,99,0.00,,,0.04,meteohub,2013-08-12 05:55:00,
2013-08-12 02:00:00,65.7,65.3,30.17,NE,40,0.0,1.0,99,0.00,,,0.04,meteohub,2013-08-12 06:00:00,
2013-08-12 02:05:00,65.5,65.1,30.17,NE,39,0.0,1.0,99,0.00,,,0.04,meteohub,2013-08-12 06:05:00,
2013-08-12 02:10:00,65.5,65.1,30.17,NE,39,0.0,1.0,99,0.01,,,0.05,meteohub,2013-08-12 06:10:00,
2013-08-12 02:15:00,65.3,64.9,30.17,NE,39,0.0,0.0,99,0.01,,,0.05,meteohub,2013-08-12 06:15:00,
2013-08-12 02:21:00,65.3,64.9,30.17,NE,39,0.0,0.0,99,0.01,,,0.05,meteohub,2013-08-12 06:21:00,
2013-08-12 02:26:00,65.5,65.5,30.17,NE,40,0.0,0.0,100,0.01,,,0.05,meteohub,2013-08-12 06:26:00,
2013-08-12 02:31:00,65.5,65.5,30.17,NE,39,0.0,0.0,100,0.01,,,0.05,meteohub,2013-08-12 06:31:00,
2013-08-12 02:36:00,65.5,65.5,30.17,NE,40,0.0,0.0,100,0.01,,,0.05,meteohub,2013-08-12 06:36:00,
2013-08-12 02:41:00,65.5,65.5,30.17,NE,39,0.0,1.0,100,0.01,,,0.05,meteohub,2013-08-12 06:41:00,
2013-08-12 02:46:00,65.5,65.5,30.17,NE,39,0.0,1.0,100,0.01,,,0.05,meteohub,2013-08-12 06:46:00,
2013-08-12 02:51:00,65.5,65.1,30.17,NE,37,0.0,1.0,99,0.01,,,0.05,meteohub,2013-08-12 06:51:00,
2013-08-12 02:56:00,65.5,65.1,30.17,NE,37,0.0,0.0,99,0.01,,,0.05,meteohub,2013-08-12 06:56:00,
2013-08-12 03:01:00,65.3,64.9,30.17,NE,37,0.0,0.0,99,0.01,,,0.05,meteohub,2013-08-12 07:01:00,
2013-08-12 03:06:00,65.3,65.3,30.16,NE,37,0.0,0.0,100,0.01,,,0.05,meteohub,2013-08-12 07:06:00,
2013-08-12 03:11:00,65.3,65.3,30.17,NE,37,0.0,0.0,100,0.00,,,0.05,meteohub,2013-08-12 07:11:00,
2013-08-12 03:16:00,65.3,65.3,30.16,NE,39,0.0,0.0,100,0.00,,,0.05,meteohub,2013-08-12 07:16:00,
2013-08-12 03:21:00,65.1,65.1,30.16,NE,39,0.0,0.0,100,0.00,,,0.05,meteohub,2013-08-12 07:21:00,
2013-08-12 03:26:00,65.1,65.1,30.16,NE,39,0.0,0.0,100,0.00,,,0.05,meteohub,2013-08-12 07:26:00,
2013-08-12 03:31:00,65.1,65.1,30.16,NE,37,0.0,0.0,100,0.00,,,0.05,meteohub,2013-08-12 07:31:00,
2013-08-12 03:36:00,65.1,65.1,30.16,NE,37,0.0,0.0,100,0.00,,,0.05,meteohub,2013-08-12 07:36:00,
2013-08-12 03:41:00,65.1,65.1,30.16,NE,37,0.0,0.0,100,0.00,,,0.05,meteohub,2013-08-12 07:41:00,
2013-08-12 03:46:00,65.1,65.1,30.16,NE,37,0.0,0.0,100,0.00,,,0.05,meteohub,2013-08-12 07:46:00,
2013-08-12 03:51:00,65.1,65.1,30.16,NE,39,0.0,0.0,100,0.00,,,0.05,meteohub,2013-08-12 07:51:00,
2013-08-12 03:56:00,64.9,64.9,30.16,NE,39,0.0,0.0,100,0.00,,,0.05,meteohub,2013-08-12 07:56:00,
2013-08-12 04:01:00,64.9,64.9,30.16,NE,39,0.0,0.0,100,0.00,,,0.05,meteohub,2013-08-12 08:01:00,
2013-08-12 04:06:00,64.9,64.9,30.16,NE,39,0.0,0.0,100,0.00,,,0.05,meteohub,2013-08-12 08:06:00,
2013-08-12 04:11:00,64.9,64.9,30.16,NE,38,0.0,0.0,100,0.00,,,0.05,meteohub,2013-08-12 08:11:00,
2013-08-12 04:16:00,64.8,64.4,30.16,NE,39,0.0,1.0,99,0.00,,,0.05,meteohub,2013-08-12 08:16:00,
2013-08-12 04:21:00,64.8,64.8,30.15,NE,38,0.0,1.0,100,0.00,,,0.05,meteohub,2013-08-12 08:21:00,
2013-08-12 04:26:00,64.6,64.6,30.15,NE,35,0.0,1.0,100,0.00,,,0.05,meteohub,2013-08-12 08:26:00,
2013-08-12 04:31:00,64.6,64.6,30.15,NE,37,0.0,0.0,100,0.00,,,0.05,meteohub,2013-08-12 08:31:00,
2013-08-12 04:36:00,64.6,64.6,30.15,NE,38,0.0,1.0,100,0.00,,,0.05,meteohub,2013-08-12 08:36:00,
2013-08-12 04:41:00,64.6,64.6,30.15,NE,38,0.0,1.0,100,0.00,,,0.05,meteohub,2013-08-12 08:41:00,
2013-08-12 04:46:00,64.6,64.6,30.15,NE,39,0.0,1.0,100,0.00,,,0.05,meteohub,2013-08-12 08:46:00,
2013-08-12 04:51:00,64.6,64.6,30.16,NE,39,0.0,1.0,100,0.00,,,0.05,meteohub,2013-08-12 08:51:00,
2013-08-12 04:56:00,64.2,64.2,30.16,NE,39,0.0,0.0,100,0.00,,,0.05,meteohub,2013-08-12 08:56:00,
2013-08-12 05:01:00,64.2,64.2,30.16,NE,37,0.0,0.0,100,0.00,,,0.05,meteohub,2013-08-12 09:01:00,
2013-08-12 05:07:00,64.2,64.2,30.16,NE,39,0.0,0.0,100,0.00,,,0.05,meteohub,2013-08-12 09:07:00,
2013-08-12 05:12:00,64.2,64.2,30.16,NE,39,0.0,0.0,100,0.00,,,0.05,meteohub,2013-08-12 09:12:00,
2013-08-12 05:17:00,64.2,64.2,30.16,NE,37,0.0,0.0,100,0.00,,,0.05,meteohub,2013-08-12 09:17:00,
2013-08-12 05:22:00,64.2,64.2,30.16,NE,37,0.0,0.0,100,0.00,,,0.05,meteohub,2013-08-12 09:22:00,
2013-08-12 05:27:00,64.0,64.0,30.17,NE,39,0.0,0.0,100,0.00,,,0.05,meteohub,2013-08-12 09:27:00,
2013-08-12 05:31:00,64.2,64.2,30.17,NE,39,0.0,0.0,100,0.00,,,0.05,meteohub,2013-08-12 09:31:00,
2013-08-12 05:37:00,64.2,64.2,30.17,NE,37,0.0,0.0,100,0.00,,,0.05,meteohub,2013-08-12 09:37:00,
2013-08-12 05:41:00,64.2,64.2,30.16,NE,37,0.0,0.0,100,0.00,,,0.05,meteohub,2013-08-12 09:41:00,
2013-08-12 05:46:00,64.2,64.2,30.16,NE,39,0.0,0.0,100,0.00,,,0.05,meteohub,2013-08-12 09:46:00,
2013-08-12 05:51:00,64.0,64.0,30.17,NE,37,0.0,0.0,100,0.00,,,0.05,meteohub,2013-08-12 09:51:00,
2013-08-12 05:56:00,64.2,64.2,30.17,NE,37,0.0,0.0,100,0.00,,,0.05,meteohub,2013-08-12 09:56:00,
2013-08-12 06:02:00,64.0,64.0,30.17,NE,37,0.0,0.0,100,0.00,,,0.05,meteohub,2013-08-12 10:02:00,
2013-08-12 06:07:00,64.0,64.0,30.17,NE,37,0.0,0.0,100,0.00,,,0.05,meteohub,2013-08-12 10:07:00,
2013-08-12 06:11:00,64.2,64.2,30.17,NE,35,0.0,0.0,100,0.00,,,0.05,meteohub,2013-08-12 10:11:00,
2013-08-12 06:16:00,64.0,64.0,30.17,NE,37,0.0,1.0,100,0.00,,,0.05,meteohub,2013-08-12 10:16:00,
2013-08-12 06:21:00,64.2,64.2,30.17,NE,43,1.0,1.0,100,0.00,,,0.05,meteohub,2013-08-12 10:21:00,
2013-08-12 06:26:00,64.2,64.2,30.17,NE,43,0.0,2.0,100,0.00,,,0.05,meteohub,2013-08-12 10:26:00,
2013-08-12 06:31:00,64.2,64.2,30.17,NE,43,0.0,2.0,100,0.00,,,0.05,meteohub,2013-08-12 10:31:00,
2013-08-12 06:37:00,64.0,64.0,30.17,NE,53,1.0,2.0,100,0.00,,,0.05,meteohub,2013-08-12 10:37:00,
2013-08-12 06:42:00,64.0,64.0,30.17,NE,56,0.0,2.0,100,0.00,,,0.05,meteohub,2013-08-12 10:42:00,
2013-08-12 06:47:00,64.0,64.0,30.17,NE,56,0.0,2.0,100,0.00,,,0.05,meteohub,2013-08-12 10:47:00,
2013-08-12 06:52:00,64.0,64.0,30.17,NE,56,0.0,2.0,100,0.00,,,0.05,meteohub,2013-08-12 10:52:00,
2013-08-12 06:57:00,64.0,64.0,30.17,NE,56,0.0,1.0,100,0.00,,,0.05,meteohub,2013-08-12 10:57:00,
2013-08-12 07:02:00,64.0,64.0,30.18,NE,56,0.0,0.0,100,0.00,,,0.05,meteohub,2013-08-12 11:02:00,
2013-08-12 07:07:00,64.2,64.2,30.18,NE,56,0.0,1.0,100,0.00,,,0.05,meteohub,2013-08-12 11:07:00,
2013-08-12 07:12:00,64.2,64.2,30.18,NE,52,0.0,1.0,100,0.00,,,0.05,meteohub,2013-08-12 11:12:00,
2013-08-12 07:17:00,64.2,64.2,30.17,NE,55,0.0,1.0,100,0.00,,,0.05,meteohub,2013-08-12 11:17:00,
2013-08-12 07:22:00,64.2,64.2,30.18,NE,52,0.0,0.0,100,0.00,,,0.05,meteohub,2013-08-12 11:22:00,
2013-08-12 07:27:00,64.2,64.2,30.18,NE,56,0.0,0.0,100,0.00,,,0.05,meteohub,2013-08-12 11:27:00,
2013-08-12 07:32:00,64.2,64.2,30.18,NE,53,0.0,0.0,100,0.00,,,0.05,meteohub,2013-08-12 11:32:00,
2013-08-12 07:37:00,64.2,64.2,30.17,NE,52,0.0,0.0,100,0.00,,,0.05,meteohub,2013-08-12 11:37:00,
2013-08-12 07:42:00,64.2,64.2,30.18,NE,53,0.0,0.0,100,0.00,,,0.05,meteohub,2013-08-12 11:42:00,
2013-08-12 07:47:00,64.6,64.6,30.18,NE,53,0.0,0.0,100,0.00,,,0.05,meteohub,2013-08-12 11:47:00,
2013-08-12 07:52:00,64.4,64.4,30.18,NE,52,0.0,0.0,100,0.00,,,0.05,meteohub,2013-08-12 11:52:00,
2013-08-12 07:57:00,64.4,64.4,30.18,NE,53,0.0,0.0,100,0.00,,,0.05,meteohub,2013-08-12 11:57:00,
2013-08-12 08:02:00,64.6,64.6,30.17,NE,53,0.0,0.0,100,0.00,,,0.05,meteohub,2013-08-12 12:02:00,
2013-08-12 08:07:00,64.8,64.8,30.17,NE,53,0.0,0.0,100,0.00,,,0.05,meteohub,2013-08-12 12:07:00,
2013-08-12 08:12:00,64.8,64.8,30.17,NE,53,0.0,0.0,100,0.00,,,0.05,meteohub,2013-08-12 12:12:00,
2013-08-12 08:17:00,64.9,64.9,30.17,NE,53,0.0,0.0,100,0.00,,,0.05,meteohub,2013-08-12 12:17:00,
2013-08-12 08:22:00,65.1,65.1,30.18,NE,53,0.0,0.0,100,0.00,,,0.05,meteohub,2013-08-12 12:22:00,
2013-08-12 08:27:00,65.1,65.1,30.18,NE,53,0.0,0.0,100,0.00,,,0.05,meteohub,2013-08-12 12:27:00,
2013-08-12 08:32:00,65.1,65.1,30.18,NE,53,0.0,0.0,100,0.00,,,0.05,meteohub,2013-08-12 12:32:00,
2013-08-12 08:37:00,65.3,65.3,30.17,NE,51,0.0,0.0,100,0.00,,,0.05,meteohub,2013-08-12 12:37:00,
2013-08-12 08:42:00,65.3,65.3,30.17,NE,52,0.0,0.0,100,0.00,,,0.05,meteohub,2013-08-12 12:42:00,
2013-08-12 08:47:00,65.3,65.3,30.18,ENE,61,1.0,2.0,100,0.00,,,0.05,meteohub,2013-08-12 12:47:00,
2013-08-12 08:52:00,65.5,65.5,30.18,NE,55,0.0,2.0,100,0.00,,,0.05,meteohub,2013-08-12 12:52:00,
2013-08-12 08:57:00,65.5,65.5,30.18,ENE,58,1.0,2.0,100,0.00,,,0.05,meteohub,2013-08-12 12:57:00,
2013-08-12 09:02:00,65.7,65.7,30.18,NE,55,0.0,1.0,100,0.00,,,0.05,meteohub,2013-08-12 13:02:00,
2013-08-12 09:07:00,66.0,66.0,30.18,NE,56,0.0,1.0,100,0.00,,,0.05,meteohub,2013-08-12 13:07:00,
2013-08-12 09:12:00,66.2,66.2,30.18,ENE,57,0.0,1.0,100,0.00,,,0.05,meteohub,2013-08-12 13:12:00,
2013-08-12 09:17:00,66.4,66.4,30.17,NE,56,0.0,1.0,100,0.00,,,0.05,meteohub,2013-08-12 13:17:00,
2013-08-12 09:22:00,66.7,66.7,30.17,ENE,60,1.0,1.0,100,0.00,,,0.05,meteohub,2013-08-12 13:22:00,
2013-08-12 09:27:00,66.9,66.9,30.17,ENE,58,0.0,2.0,100,0.00,,,0.05,meteohub,2013-08-12 13:27:00,
2013-08-12 09:32:00,67.1,67.1,30.17,ENE,58,0.0,2.0,100,0.00,,,0.05,meteohub,2013-08-12 13:32:00,
2013-08-12 09:37:00,67.5,67.5,30.17,NE,56,1.0,2.0,100,0.00,,,0.05,meteohub,2013-08-12 13:37:00,
2013-08-12 09:42:00,67.6,67.3,30.17,NE,55,0.0,2.0,99,0.00,,,0.05,meteohub,2013-08-12 13:42:00,
2013-08-12 09:47:00,68.0,67.6,30.17,ENE,74,3.0,3.0,99,0.00,,,0.05,meteohub,2013-08-12 13:47:00,
2013-08-12 09:52:00,68.2,67.8,30.17,ENE,67,0.0,3.0,99,0.00,,,0.05,meteohub,2013-08-12 13:52:00,
2013-08-12 09:57:00,68.4,68.0,30.17,ENE,70,1.0,3.0,99,0.00,,,0.05,meteohub,2013-08-12 13:57:00,
2013-08-12 10:02:00,69.1,68.7,30.17,ENE,68,2.0,3.0,99,0.00,,,0.05,meteohub,2013-08-12 14:02:00,
2013-08-12 10:07:00,69.6,69.3,30.17,NE,46,0.0,3.0,99,0.00,,,0.05,meteohub,2013-08-12 14:07:00,
2013-08-12 10:12:00,70.5,70.2,30.17,ENE,65,1.0,3.0,99,0.00,,,0.05,meteohub,2013-08-12 14:12:00,
2013-08-12 10:17:00,71.6,71.2,30.17,ENE,65,0.0,3.0,99,0.00,,,0.05,meteohub,2013-08-12 14:17:00,
2013-08-12 10:22:00,72.5,72.0,30.17,ENE,65,0.0,2.0,98,0.00,,,0.05,meteohub,2013-08-12 14:22:00,
2013-08-12 10:27:00,73.8,72.0,30.17,ENE,68,2.0,2.0,94,0.00,,,0.05,meteohub,2013-08-12 14:27:00,
2013-08-12 10:32:00,74.7,71.8,30.17,ENE,72,1.0,2.0,91,0.00,,,0.05,meteohub,2013-08-12 14:32:00,
2013-08-12 10:37:00,75.6,72.5,30.17,ENE,68,0.0,3.0,90,0.00,,,0.05,meteohub,2013-08-12 14:37:00,
2013-08-12 10:42:00,76.5,71.2,30.16,ENE,64,1.0,3.0,84,0.00,,,0.05,meteohub,2013-08-12 14:42:00,
2013-08-12 10:47:00,76.8,72.0,30.17,ENE,59,0.0,3.0,85,0.00,,,0.05,meteohub,2013-08-12 14:47:00,
2013-08-12 10:52:00,77.4,71.1,30.16,ENE,68,2.0,3.0,81,0.00,,,0.05,meteohub,2013-08-12 14:52:00,
2013-08-12 10:57:00,77.7,71.4,30.16,ENE,67,0.0,3.0,81,0.00,,,0.05,meteohub,2013-08-12 14:57:00,
2013-08-12 11:02:00,78.4,71.8,30.17,ENE,64,1.0,3.0,80,0.00,,,0.05,meteohub,2013-08-12 15:02:00,
2013-08-12 11:07:00,78.6,72.3,30.17,NNE,25,0.0,3.0,81,0.00,,,0.05,meteohub,2013-08-12 15:07:00,
2013-08-12 11:12:00,79.2,72.5,30.17,ENE,66,0.0,2.0,80,0.00,,,0.05,meteohub,2013-08-12 15:12:00,
2013-08-12 11:17:00,79.5,72.5,30.17,ENE,61,2.0,2.0,79,0.00,,,0.05,meteohub,2013-08-12 15:17:00,
2013-08-12 11:22:00,79.5,72.9,30.16,ENE,64,0.0,2.0,80,0.00,,,0.05,meteohub,2013-08-12 15:22:00,
2013-08-12 11:27:00,80.1,73.0,30.16,ENE,65,3.0,3.0,79,0.00,,,0.05,meteohub,2013-08-12 15:27:00,
2013-08-12 11:31:00,80.2,72.3,30.16,ENE,62,0.0,4.0,77,0.00,,,0.05,meteohub,2013-08-12 15:31:00,
2013-08-12 11:36:00,80.6,72.7,30.16,NE,53,3.0,4.0,77,0.00,,,0.05,meteohub,2013-08-12 15:36:00,
2013-08-12 11:42:00,80.6,72.3,30.15,NE,46,1.0,4.0,76,0.00,,,0.05,meteohub,2013-08-12 15:42:00,
2013-08-12 11:47:00,81.1,72.9,30.15,North,359,0.0,4.0,76,0.00,,,0.05,meteohub,2013-08-12 15:47:00,
2013-08-12 11:52:00,82.0,72.5,30.15,ENE,58,1.0,4.0,73,0.00,,,0.05,meteohub,2013-08-12 15:52:00,
2013-08-12 11:57:00,82.8,73.2,30.15,NNW,333,0.0,3.0,73,0.00,,,0.05,meteohub,2013-08-12 15:57:00,
2013-08-12 12:02:00,82.8,72.3,30.15,NNE,23,0.0,3.0,71,0.00,,,0.05,meteohub,2013-08-12 16:02:00,
2013-08-12 12:07:00,83.1,73.2,30.14,SW,222,0.0,3.0,72,0.00,,,0.05,meteohub,2013-08-12 16:07:00,
2013-08-12 12:12:00,83.7,71.6,30.14,NNE,13,0.0,5.0,67,0.00,,,0.05,meteohub,2013-08-12 16:12:00,
2013-08-12 12:17:00,84.0,72.7,30.14,WSW,253,3.0,5.0,69,0.00,,,0.05,meteohub,2013-08-12 16:17:00,
2013-08-12 12:22:00,84.0,73.2,30.14,SW,218,1.0,5.0,70,0.00,,,0.05,meteohub,2013-08-12 16:22:00,
2013-08-12 12:27:00,84.7,73.9,30.14,South,169,1.0,5.0,70,0.00,,,0.05,meteohub,2013-08-12 16:27:00,
2013-08-12 12:32:00,84.9,73.2,30.14,SW,228,1.0,5.0,68,0.00,,,0.05,meteohub,2013-08-12 16:32:00,
2013-08-12 12:37:00,84.7,73.9,30.14,SW,226,4.0,5.0,70,0.00,,,0.05,meteohub,2013-08-12 16:37:00,
2013-08-12 12:42:00,84.4,73.0,30.14,SW,228,3.0,7.0,69,0.00,,,0.05,meteohub,2013-08-12 16:42:00,
2013-08-12 12:47:00,84.2,73.4,30.14,SW,222,2.0,7.0,70,0.00,,,0.05,meteohub,2013-08-12 16:47:00,
2013-08-12 12:52:00,84.0,72.7,30.13,SSW,208,5.0,7.0,69,0.00,,,0.05,meteohub,2013-08-12 16:52:00,
2013-08-12 12:57:00,83.3,73.4,30.14,SW,226,2.0,6.0,72,0.00,,,0.05,meteohub,2013-08-12 16:57:00,
2013-08-12 13:02:00,82.6,73.4,30.14,SW,218,2.0,6.0,74,0.00,,,0.05,meteohub,2013-08-12 17:02:00,
2013-08-12 13:07:00,81.7,72.5,30.13,SW,228,3.0,6.0,74,0.00,,,0.05,meteohub,2013-08-12 17:07:00,
2013-08-12 13:12:00,80.2,72.0,30.13,South,186,4.0,11.0,76,0.00,,,0.05,meteohub,2013-08-12 17:12:00,
2013-08-12 13:17:00,78.4,71.4,30.13,SSW,211,4.0,11.0,79,0.00,,,0.05,meteohub,2013-08-12 17:17:00,
2013-08-12 13:22:00,77.2,71.6,30.12,SW,228,0.0,11.0,83,0.00,,,0.05,meteohub,2013-08-12 17:22:00,
2013-08-12 13:27:00,76.8,72.0,30.12,SSE,155,1.0,6.0,85,0.00,,,0.05,meteohub,2013-08-12 17:27:00,
2013-08-12 13:32:00,77.7,72.9,30.12,SW,218,2.0,5.0,85,0.00,,,0.05,meteohub,2013-08-12 17:32:00,
2013-08-12 13:37:00,79.2,72.5,30.12,South,190,3.0,5.0,80,0.00,,,0.05,meteohub,2013-08-12 17:37:00,
2013-08-12 13:42:00,80.2,73.0,30.12,SSE,160,1.0,5.0,79,0.00,,,0.05,meteohub,2013-08-12 17:42:00,
2013-08-12 13:47:00,81.3,74.5,30.12,SSE,159,5.0,5.0,80,0.00,,,0.05,meteohub,2013-08-12 17:47:00,
2013-08-12 13:52:00,82.0,74.8,30.11,SSW,194,4.0,6.0,79,0.00,,,0.05,meteohub,2013-08-12 17:52:00,
2013-08-12 13:57:00,82.6,74.7,30.11,SSW,194,3.0,6.0,77,0.00,,,0.05,meteohub,2013-08-12 17:57:00,
2013-08-12 14:02:00,83.1,75.6,30.11,SSW,211,2.0,6.0,78,0.00,,,0.05,meteohub,2013-08-12 18:02:00,
2013-08-12 14:07:00,83.7,74.8,30.11,SSE,150,3.0,6.0,75,0.00,,,0.05,meteohub,2013-08-12 18:07:00,
2013-08-12 14:12:00,83.8,75.0,30.10,SSW,200,4.0,8.0,75,0.00,,,0.05,meteohub,2013-08-12 18:12:00,
2013-08-12 14:17:00,83.5,74.7,30.10,SSE,166,3.0,8.0,75,0.00,,,0.05,meteohub,2013-08-12 18:17:00,
2013-08-12 14:22:00,83.1,75.2,30.10,SW,225,3.0,7.0,77,0.00,,,0.05,meteohub,2013-08-12 18:22:00,
2013-08-12 14:27:00,82.4,74.1,30.10,SW,233,0.0,7.0,76,0.00,,,0.05,meteohub,2013-08-12 18:27:00,
2013-08-12 14:32:00,81.9,74.3,30.09,SW,226,0.0,7.0,78,0.00,,,0.05,meteohub,2013-08-12 18:32:00,
2013-08-12 14:37:00,81.3,74.5,30.10,SW,233,0.0,5.0,80,0.00,,,0.05,meteohub,2013-08-12 18:37:00,
2013-08-12 14:42:00,80.2,75.0,30.10,SW,231,0.0,5.0,84,0.08,,,0.10,meteohub,2013-08-12 18:42:00,
2013-08-12 14:47:00,78.6,73.0,30.11,SE,124,0.0,5.0,83,0.11,,,0.16,meteohub,2013-08-12 18:47:00,
2013-08-12 14:52:00,76.1,70.5,30.10,ENE,75,2.0,4.0,83,0.26,,,0.31,meteohub,2013-08-12 18:52:00,
2013-08-12 14:57:00,74.3,70.9,30.09,ENE,69,0.0,4.0,89,0.32,,,0.37,meteohub,2013-08-12 18:57:00,
2013-08-12 15:02:00,73.8,70.9,30.09,ENE,68,0.0,4.0,91,0.33,,,0.38,meteohub,2013-08-12 19:02:00,
2013-08-12 15:07:00,73.6,71.1,30.09,North,6,2.0,3.0,92,0.34,,,0.39,meteohub,2013-08-12 19:07:00,
2013-08-12 15:12:00,73.2,71.1,30.09,North,6,1.0,2.0,93,0.34,,,0.39,meteohub,2013-08-12 19:12:00,
2013-08-12 15:17:00,73.2,71.8,30.09,NNE,25,1.0,2.0,95,0.34,,,0.39,meteohub,2013-08-12 19:17:00,
2013-08-12 15:22:00,74.1,73.2,30.09,SW,218,0.0,2.0,97,0.34,,,0.39,meteohub,2013-08-12 19:22:00,
2013-08-12 15:27:00,75.0,73.4,30.09,West,262,1.0,2.0,95,0.34,,,0.39,meteohub,2013-08-12 19:27:00,
2013-08-12 15:32:00,76.5,73.2,30.09,SW,219,4.0,5.0,90,0.34,,,0.39,meteohub,2013-08-12 19:32:00,
2013-08-12 15:37:00,77.4,71.8,30.08,SW,235,0.0,8.0,83,0.33,,,0.39,meteohub,2013-08-12 19:37:00,
2013-08-12 15:42:00,77.5,71.6,30.09,WSW,240,1.0,8.0,82,0.25,,,0.39,meteohub,2013-08-12 19:42:00,
2013-08-12 15:47:00,77.4,71.8,30.09,WSW,240,0.0,8.0,83,0.19,,,0.39,meteohub,2013-08-12 19:47:00,
2013-08-12 15:52:00,78.1,72.1,30.10,SSE,157,2.0,8.0,82,0.05,,,0.39,meteohub,2013-08-12 19:52:00,
2013-08-12 15:57:00,79.0,73.0,30.09,NW,308,1.0,5.0,82,0.01,,,0.39,meteohub,2013-08-12 19:57:00,
2013-08-12 16:02:00,79.9,73.6,30.08,ESE,118,0.0,5.0,81,0.00,,,0.39,meteohub,2013-08-12 20:02:00,
2013-08-12 16:07:00,80.4,72.5,30.09,SW,225,4.0,5.0,77,0.00,,,0.39,meteohub,2013-08-12 20:07:00,
2013-08-12 16:12:00,81.1,72.9,30.09,ESE,115,6.0,6.0,76,0.00,,,0.39,meteohub,2013-08-12 20:12:00,
2013-08-12 16:17:00,81.1,73.2,30.09,SW,214,5.0,8.0,77,0.00,,,0.39,meteohub,2013-08-12 20:17:00,
2013-08-12 16:22:00,81.3,73.8,30.08,SW,229,3.0,10.0,78,0.00,,,0.39,meteohub,2013-08-12 20:22:00,
2013-08-12 16:27:00,81.1,74.3,30.08,South,190,2.0,10.0,80,0.00,,,0.39,meteohub,2013-08-12 20:27:00,
2013-08-12 16:32:00,81.1,73.2,30.08,SW,218,0.0,10.0,77,0.00,,,0.39,meteohub,2013-08-12 20:32:00,
2013-08-12 16:37:00,81.7,74.5,30.08,South,187,2.0,7.0,79,0.00,,,0.39,meteohub,2013-08-12 20:37:00,
2013-08-12 16:42:00,81.7,74.5,30.07,SSW,207,1.0,6.0,79,0.00,,,0.39,meteohub,2013-08-12 20:42:00,
2013-08-12 16:47:00,81.1,72.9,30.08,SW,214,0.0,3.0,76,0.00,,,0.39,meteohub,2013-08-12 20:47:00,
2013-08-12 16:52:00,80.8,73.2,30.07,North,358,1.0,4.0,78,0.00,,,0.39,meteohub,2013-08-12 20:52:00,
2013-08-12 16:58:00,80.6,73.9,30.07,NNW,330,1.0,4.0,80,0.00,,,0.39,meteohub,2013-08-12 20:58:00,
2013-08-12 17:03:00,80.4,74.1,30.07,NNE,19,2.0,4.0,81,0.00,,,0.39,meteohub,2013-08-12 21:03:00,
2013-08-12 17:08:00,79.5,73.2,30.08,NNE,25,2.0,4.0,81,0.00,,,0.39,meteohub,2013-08-12 21:08:00,
2013-08-12 17:13:00,78.8,73.2,30.08,NNE,33,0.0,4.0,83,0.00,,,0.39,meteohub,2013-08-12 21:13:00,
2013-08-12 17:18:00,78.4,74.3,30.09,North,4,2.0,4.0,87,0.00,,,0.39,meteohub,2013-08-12 21:18:00,
2013-08-12 17:23:00,77.5,72.3,30.09,North,4,0.0,4.0,84,0.00,,,0.39,meteohub,2013-08-12 21:23:00,
2013-08-12 17:28:00,76.8,71.2,30.09,West,278,0.0,4.0,83,0.00,,,0.39,meteohub,2013-08-12 21:28:00,
2013-08-12 17:33:00,76.5,70.9,30.09,NNE,25,1.0,4.0,83,0.00,,,0.39,meteohub,2013-08-12 21:33:00,
2013-08-12 17:38:00,76.1,70.5,30.08,NNE,29,3.0,4.0,83,0.00,,,0.39,meteohub,2013-08-12 21:38:00,
2013-08-12 17:43:00,75.6,70.0,30.08,North,357,3.0,4.0,83,0.00,,,0.39,meteohub,2013-08-12 21:43:00,
2013-08-12 17:48:00,75.2,69.6,30.08,ENE,57,3.0,5.0,83,0.00,,,0.39,meteohub,2013-08-12 21:48:00,
2013-08-12 17:53:00,75.0,69.8,30.08,East,96,0.0,5.0,84,0.00,,,0.39,meteohub,2013-08-12 21:53:00,
2013-08-12 17:58:00,75.4,69.8,30.08,NE,51,2.0,5.0,83,0.00,,,0.39,meteohub,2013-08-12 21:58:00,
2013-08-12 18:03:00,75.7,70.2,30.08,NE,44,0.0,5.0,83,0.00,,,0.39,meteohub,2013-08-12 22:03:00,
2013-08-12 18:08:00,76.1,70.2,30.07,SW,218,0.0,3.0,82,0.00,,,0.39,meteohub,2013-08-12 22:08:00,
2013-08-12 18:13:00,76.6,70.7,30.06,SW,218,0.0,3.0,82,0.00,,,0.39,meteohub,2013-08-12 22:13:00,
2013-08-12 18:18:00,77.0,70.7,30.06,SW,218,0.0,2.0,81,0.00,,,0.39,meteohub,2013-08-12 22:18:00,
2013-08-12 18:23:00,77.4,71.4,30.06,SW,218,0.0,1.0,82,0.00,,,0.39,meteohub,2013-08-12 22:23:00,
2013-08-12 18:28:00,77.4,71.4,30.06,SW,218,0.0,1.0,82,0.00,,,0.39,meteohub,2013-08-12 22:28:00,
2013-08-12 18:33:00,76.8,71.6,30.06,SW,218,1.0,1.0,84,0.00,,,0.39,meteohub,2013-08-12 22:33:00,
2013-08-12 18:38:00,76.3,72.5,30.06,SW,218,1.0,2.0,88,0.00,,,0.39,meteohub,2013-08-12 22:38:00,
2013-08-12 18:43:00,75.6,72.1,30.05,SW,218,0.0,2.0,89,0.00,,,0.39,meteohub,2013-08-12 22:43:00,
2013-08-12 18:48:00,75.6,72.1,30.05,SW,218,0.0,1.0,89,0.00,,,0.39,meteohub,2013-08-12 22:48:00,
2013-08-12 18:53:00,75.4,72.3,30.05,SW,218,0.0,1.0,90,0.00,,,0.39,meteohub,2013-08-12 22:53:00,
2013-08-12 18:58:00,75.0,72.0,30.05,ESE,104,0.0,1.0,90,0.00,,,0.39,meteohub,2013-08-12 22:58:00,
2013-08-12 19:03:00,74.8,71.8,30.05,ESE,105,0.0,1.0,90,0.00,,,0.39,meteohub,2013-08-12 23:03:00,
2013-08-12 19:08:00,74.8,72.0,30.05,ESE,105,1.0,1.0,91,0.00,,,0.39,meteohub,2013-08-12 23:08:00,
2013-08-12 19:13:00,74.7,72.1,30.05,ESE,104,0.0,1.0,92,0.00,,,0.39,meteohub,2013-08-12 23:13:00,
2013-08-12 19:18:00,74.5,72.0,30.06,ESE,105,0.0,1.0,92,0.00,,,0.39,meteohub,2013-08-12 23:18:00,
2013-08-12 19:23:00,74.3,71.8,30.06,ESE,104,0.0,1.0,92,0.00,,,0.39,meteohub,2013-08-12 23:23:00,
2013-08-12 19:28:00,74.1,72.0,30.06,ESE,106,0.0,1.0,93,0.00,,,0.39,meteohub,2013-08-12 23:28:00,
2013-08-12 19:33:00,74.1,72.0,30.06,ESE,105,0.0,1.0,93,0.00,,,0.39,meteohub,2013-08-12 23:33:00,
2013-08-12 19:38:00,73.9,71.8,30.06,ESE,105,0.0,1.0,93,0.00,,,0.39,meteohub,2013-08-12 23:38:00,
2013-08-12 19:43:00,73.8,72.0,30.06,ESE,105,0.0,1.0,94,0.00,,,0.39,meteohub,2013-08-12 23:43:00,
2013-08-12 19:48:00,73.8,72.0,30.05,ESE,105,0.0,1.0,94,0.00,,,0.39,meteohub,2013-08-12 23:48:00,
2013-08-12 19:53:00,73.6,71.8,30.05,ESE,104,0.0,1.0,94,0.00,,,0.39,meteohub,2013-08-12 23:53:00,
2013-08-12 19:58:00,73.6,71.8,30.05,ESE,104,0.0,1.0,94,0.00,,,0.39,meteohub,2013-08-12 23:58:00,
2013-08-12 20:03:00,73.6,71.8,30.05,ESE,105,0.0,1.0,94,0.00,,,0.39,meteohub,2013-08-13 00:03:00,
2013-08-12 20:08:00,73.4,71.6,30.06,ESE,104,0.0,1.0,94,0.00,,,0.00,meteohub,2013-08-13 00:08:00,
2013-08-12 20:14:00,73.2,71.8,30.05,ESE,104,0.0,1.0,95,0.00,,,0.00,meteohub,2013-08-13 00:14:00,
2013-08-12 20:19:00,72.9,71.4,30.06,ESE,105,0.0,0.0,95,0.00,,,0.00,meteohub,2013-08-13 00:19:00,
2013-08-12 20:24:00,72.5,71.2,30.06,ESE,104,0.0,0.0,96,0.00,,,0.00,meteohub,2013-08-13 00:24:00,
2013-08-12 20:29:00,72.1,70.9,30.05,ESE,104,0.0,0.0,96,0.00,,,0.00,meteohub,2013-08-13 00:29:00,
2013-08-12 20:34:00,72.0,70.7,30.06,ESE,105,0.0,1.0,96,0.00,,,0.00,meteohub,2013-08-13 00:34:00,
2013-08-12 20:39:00,72.0,71.1,30.06,ESE,105,0.0,1.0,97,0.00,,,0.00,meteohub,2013-08-13 00:39:00,
2013-08-12 20:44:00,71.8,70.9,30.06,ESE,105,0.0,1.0,97,0.00,,,0.00,meteohub,2013-08-13 00:44:00,
2013-08-12 20:49:00,71.6,70.7,30.06,ESE,105,0.0,0.0,97,0.00,,,0.00,meteohub,2013-08-13 00:49:00,
2013-08-12 20:54:00,71.4,70.5,30.06,ESE,105,0.0,0.0,97,0.00,,,0.00,meteohub,2013-08-13 00:54:00,
2013-08-12 20:59:00,71.2,70.3,30.06,ESE,104,0.0,0.0,97,0.00,,,0.00,meteohub,2013-08-13 00:59:00,
2013-08-12 21:04:00,71.1,70.2,30.07,ESE,105,0.0,0.0,97,0.00,,,0.00,meteohub,2013-08-13 01:04:00,
2013-08-12 21:09:00,70.9,70.0,30.07,ESE,104,1.0,0.0,97,0.00,,,0.00,meteohub,2013-08-13 01:09:00,
2013-08-12 21:14:00,70.9,70.0,30.07,ESE,104,0.0,1.0,97,0.00,,,0.00,meteohub,2013-08-13 01:14:00,
2013-08-12 21:19:00,70.7,69.8,30.08,ESE,105,0.0,1.0,97,0.00,,,0.00,meteohub,2013-08-13 01:19:00,
2013-08-12 21:24:00,70.5,69.6,30.08,ESE,105,0.0,1.0,97,0.00,,,0.00,meteohub,2013-08-13 01:24:00,
2013-08-12 21:29:00,70.5,70.0,30.08,ESE,105,0.0,1.0,98,0.00,,,0.00,meteohub,2013-08-13 01:29:00,
2013-08-12 21:34:00,70.5,70.0,30.08,ESE,104,0.0,0.0,98,0.00,,,0.00,meteohub,2013-08-13 01:34:00,
2013-08-12 21:39:00,70.3,69.8,30.08,ESE,105,0.0,0.0,98,0.00,,,0.00,meteohub,2013-08-13 01:39:00,
2013-08-12 21:44:00,70.3,69.8,30.08,ESE,104,0.0,0.0,98,0.00,,,0.00,meteohub,2013-08-13 01:44:00,
2013-08-12 21:49:00,70.3,69.8,30.08,ESE,103,0.0,1.0,98,0.00,,,0.00,meteohub,2013-08-13 01:49:00,
2013-08-12 21:52:00,70.3,69.8,30.08,ESE,104,0.0,1.0,98,0.00,,,0.00,meteohub,2013-08-13 01:52:00,
2013-08-12 21:57:00,70.2,69.6,30.08,ESE,104,0.0,1.0,98,0.00,,,0.00,meteohub,2013-08-13 01:57:00,
2013-08-12 22:02:00,70.2,69.6,30.08,ESE,105,1.0,1.0,98,0.00,,,0.00,meteohub,2013-08-13 02:02:00,
2013-08-12 22:07:00,70.2,69.6,30.08,ESE,105,0.0,1.0,98,0.00,,,0.00,meteohub,2013-08-13 02:07:00,
2013-08-12 22:12:00,70.0,69.4,30.08,ESE,105,0.0,1.0,98,0.00,,,0.00,meteohub,2013-08-13 02:12:00,
2013-08-12 22:17:00,69.6,69.1,30.08,ESE,105,0.0,1.0,98,0.00,,,0.00,meteohub,2013-08-13 02:17:00,
2013-08-12 22:22:00,69.4,68.9,30.09,ESE,105,0.0,1.0,98,0.00,,,0.00,meteohub,2013-08-13 02:22:00,
2013-08-12 22:27:00,69.4,68.9,30.08,ESE,105,0.0,0.0,98,0.00,,,0.00,meteohub,2013-08-13 02:27:00,
2013-08-12 22:32:00,69.3,68.7,30.08,ESE,105,0.0,1.0,98,0.00,,,0.00,meteohub,2013-08-13 02:32:00,
2013-08-12 22:37:00,69.3,68.7,30.08,ESE,105,0.0,1.0,98,0.00,,,0.00,meteohub,2013-08-13 02:37:00,
2013-08-12 22:42:00,69.1,68.5,30.08,ESE,104,0.0,1.0,98,0.00,,,0.00,meteohub,2013-08-13 02:42:00,
2013-08-12 22:47:00,69.1,68.5,30.08,ESE,105,0.0,0.0,98,0.00,,,0.00,meteohub,2013-08-13 02:47:00,
2013-08-12 22:52:00,69.1,68.5,30.08,ESE,105,0.0,0.0,98,0.00,,,0.00,meteohub,2013-08-13 02:52:00,
2013-08-12 22:57:00,68.7,68.2,30.07,ESE,105,0.0,0.0,98,0.00,,,0.00,meteohub,2013-08-13 02:57:00,
2013-08-12 23:02:00,68.7,68.4,30.07,ESE,105,0.0,0.0,99,0.00,,,0.00,meteohub,2013-08-13 03:02:00,
2013-08-12 23:07:00,68.7,68.2,30.07,ESE,105,0.0,0.0,98,0.00,,,0.00,meteohub,2013-08-13 03:07:00,
2013-08-12 23:12:00,68.5,68.2,30.07,ESE,105,0.0,0.0,99,0.00,,,0.00,meteohub,2013-08-13 03:12:00,
2013-08-12 23:17:00,68.4,68.0,30.07,ESE,105,0.0,0.0,99,0.00,,,0.00,meteohub,2013-08-13 03:17:00,
2013-08-12 23:22:00,68.4,68.0,30.07,ESE,105,0.0,0.0,99,0.00,,,0.00,meteohub,2013-08-13 03:22:00,
2013-08-12 23:27:00,68.4,68.0,30.07,ESE,105,0.0,0.0,99,0.00,,,0.00,meteohub,2013-08-13 03:27:00,
2013-08-12 23:32:00,68.2,67.8,30.07,ESE,105,0.0,0.0,99,0.00,,,0.00,meteohub,2013-08-13 03:32:00,
2013-08-12 23:37:00,68.2,67.8,30.06,ESE,104,0.0,0.0,99,0.00,,,0.00,meteohub,2013-08-13 03:37:00,
2013-08-12 23:42:00,68.0,67.6,30.06,ESE,105,0.0,0.0,99,0.00,,,0.00,meteohub,2013-08-13 03:42:00,
2013-08-12 23:47:00,67.8,67.5,30.07,ESE,105,0.0,0.0,99,0.00,,,0.00,meteohub,2013-08-13 03:47:00,
2013-08-12 23:53:00,67.6,67.3,30.07,ESE,105,0.0,0.0,99,0.00,,,0.00,meteohub,2013-08-13 03:53:00,
2013-08-12 23:58:00,67.6,67.3,30.06,ESE,105,0.0,0.0,99,0.00,,,0.00,meteohub,2013-08-13 03:58:00,